createdAt,value
2022-12-08T00:01:14.650Z,6.23
2022-12-08T00:03:41.982Z,5.90
2022-12-08T00:06:38.091Z,6.07
2022-12-08T00:09:22.376Z,5.71
2022-12-08T00:11:59.431Z,5.89
2022-12-08T00:14:37.871Z,6.14
2022-12-08T00:17:06.182Z,5.97
2022-12-08T00:19:32.951Z,5.64
2022-12-08T00:21:59.751Z,5.91
2022-12-08T00:24:30.913Z,5.40
2022-12-08T00:26:57.444Z,5.74
2022-12-08T00:29:23.863Z,5.24
2022-12-08T00:31:50.773Z,5.87
2022-12-08T00:34:17.666Z,5.95
2022-12-08T00:36:44.254Z,5.87
2022-12-08T00:39:12.155Z,5.70
2022-12-08T00:41:57.164Z,5.99
2022-12-08T00:44:23.768Z,5.57
2022-12-08T00:46:50.375Z,5.80
2022-12-08T00:49:17.190Z,5.63
2022-12-08T00:51:44.114Z,6.06
2022-12-08T00:54:11.560Z,5.16
2022-12-08T00:56:38.110Z,5.80
2022-12-08T00:59:06.470Z,5.87
2022-12-08T01:01:34.241Z,5.74
2022-12-08T01:04:13.172Z,6.14
2022-12-08T01:06:39.805Z,6.18
2022-12-08T01:09:07.675Z,5.68
2022-12-08T01:11:35.351Z,5.13
2022-12-08T01:14:02.347Z,5.88
2022-12-08T01:16:32.447Z,5.77
2022-12-08T01:19:00.230Z,5.49
2022-12-08T01:21:27.340Z,5.63
2022-12-08T01:23:54.516Z,5.90
2022-12-08T01:26:21.755Z,5.86
2022-12-08T01:28:49.133Z,6.01
2022-12-08T01:31:20.795Z,5.83
2022-12-08T01:33:48.058Z,5.93
2022-12-08T01:36:26.277Z,5.50
2022-12-08T01:38:54.250Z,5.32
2022-12-08T01:41:23.839Z,5.61
2022-12-08T01:44:12.707Z,5.39
2022-12-08T01:46:44.518Z,5.78
2022-12-08T01:49:13.593Z,6.03
2022-12-08T01:51:51.618Z,6.12
2022-12-08T01:54:18.739Z,5.83
2022-12-08T01:56:58.903Z,5.87
2022-12-08T01:59:26.723Z,5.47
2022-12-08T02:01:53.259Z,5.48
2022-12-08T02:04:19.750Z,6.07
2022-12-08T02:06:47.543Z,5.36
2022-12-08T02:09:14.680Z,5.76
2022-12-08T02:11:41.081Z,5.92
2022-12-08T02:14:10.829Z,5.76
2022-12-08T02:16:45.538Z,5.84
2022-12-08T02:19:49.673Z,6.06
2022-12-08T02:22:34.780Z,6.06
2022-12-08T02:25:12.268Z,5.65
2022-12-08T02:28:04.133Z,5.44
2022-12-08T02:30:43.934Z,5.75
2022-12-08T02:33:48.247Z,5.97
2022-12-08T02:36:28.957Z,5.89
2022-12-08T02:39:52.333Z,5.70
2022-12-08T02:42:30.663Z,6.03
2022-12-08T02:45:18.962Z,5.14
2022-12-08T02:47:45.610Z,5.68
2022-12-08T02:50:12.741Z,5.49
2022-12-08T02:52:45.084Z,5.46
2022-12-08T02:55:20.521Z,5.39
2022-12-08T02:58:02.045Z,5.72
2022-12-08T03:00:38.300Z,5.46
2022-12-08T03:03:45.352Z,5.29
2022-12-08T03:06:49.119Z,5.57
2022-12-08T03:09:37.202Z,5.74
2022-12-08T03:12:16.684Z,5.31
2022-12-08T03:14:48.019Z,5.68
2022-12-08T03:17:17.113Z,5.49
2022-12-08T03:19:45.177Z,5.50
2022-12-08T03:22:13.449Z,5.59
2022-12-08T03:24:43.477Z,5.29
2022-12-08T03:27:20.010Z,5.81
2022-12-08T03:29:52.088Z,5.64
2022-12-08T03:32:44.285Z,5.60
2022-12-08T03:35:17.643Z,4.99
2022-12-08T03:37:44.233Z,5.43
2022-12-08T03:40:14.820Z,5.56
2022-12-08T03:42:41.291Z,5.76
2022-12-08T03:45:07.935Z,5.49
2022-12-08T03:47:34.408Z,5.15
2022-12-08T03:50:00.908Z,5.45
2022-12-08T03:52:27.366Z,5.56
2022-12-08T03:54:53.834Z,5.14
2022-12-08T03:57:21.613Z,5.68
2022-12-08T03:59:48.065Z,5.16
2022-12-08T04:02:14.584Z,5.59
2022-12-08T04:04:41.076Z,5.70
2022-12-08T04:07:07.487Z,5.80
2022-12-08T04:09:33.901Z,5.90
2022-12-08T04:12:00.353Z,5.51
2022-12-08T04:14:26.799Z,5.61
2022-12-08T04:16:53.202Z,5.77
2022-12-08T04:19:19.723Z,5.44
2022-12-08T04:21:46.216Z,5.37
2022-12-08T04:24:12.836Z,5.16
2022-12-08T04:26:39.295Z,5.66
2022-12-08T04:29:05.714Z,5.70
2022-12-08T04:31:32.212Z,5.68
2022-12-08T04:33:58.652Z,5.70
2022-12-08T04:36:25.141Z,5.59
2022-12-08T04:38:51.570Z,5.42
2022-12-08T04:41:18.044Z,5.67
2022-12-08T04:43:45.133Z,5.68
2022-12-08T04:46:11.640Z,5.28
2022-12-08T04:48:39.197Z,5.29
2022-12-08T04:51:06.245Z,5.32
2022-12-08T04:53:33.269Z,5.71
2022-12-08T04:55:59.761Z,5.51
2022-12-08T04:58:26.203Z,5.76
2022-12-08T05:00:52.731Z,5.78
2022-12-08T05:03:25.154Z,5.87
2022-12-08T05:05:54.641Z,4.86
2022-12-08T05:08:21.291Z,5.39
2022-12-08T05:10:47.757Z,5.39
2022-12-08T05:13:14.229Z,5.52
2022-12-08T05:15:40.704Z,5.53
2022-12-08T05:18:07.501Z,5.60
2022-12-08T05:20:34.542Z,5.73
2022-12-08T05:23:01.099Z,5.68
2022-12-08T05:25:28.005Z,5.69
2022-12-08T05:28:06.138Z,5.80
2022-12-08T05:30:32.835Z,5.71
2022-12-08T05:32:59.275Z,5.00
2022-12-08T05:35:25.723Z,5.10
2022-12-08T05:37:53.900Z,5.41
2022-12-08T05:40:20.356Z,5.35
2022-12-08T05:42:46.796Z,5.05
2022-12-08T05:45:13.390Z,4.99
2022-12-08T05:47:39.805Z,5.07
2022-12-08T05:50:07.128Z,5.64
2022-12-08T05:52:33.798Z,5.26
2022-12-08T05:55:00.353Z,5.42
2022-12-08T05:57:26.758Z,5.67
2022-12-08T05:59:53.417Z,5.82
2022-12-08T06:02:19.911Z,5.56
2022-12-08T06:04:46.479Z,5.62
2022-12-08T06:07:16.063Z,5.44
2022-12-08T06:09:42.966Z,5.42
2022-12-08T06:12:11.689Z,5.48
2022-12-08T06:14:39.130Z,5.69
2022-12-08T06:17:05.799Z,5.93
2022-12-08T06:19:32.231Z,5.64
2022-12-08T06:21:58.698Z,5.11
2022-12-08T06:24:25.125Z,5.88
2022-12-08T06:26:51.602Z,5.57
2022-12-08T06:29:18.056Z,5.88
2022-12-08T06:31:44.563Z,5.89
2022-12-08T06:34:11.094Z,5.38
2022-12-08T06:36:37.594Z,5.35
2022-12-08T06:39:04.187Z,5.37
2022-12-08T06:41:30.707Z,5.91
2022-12-08T06:43:57.637Z,6.10
2022-12-08T06:46:24.645Z,5.40
2022-12-08T06:48:51.182Z,5.41
2022-12-08T06:51:19.886Z,5.94
2022-12-08T06:53:47.288Z,6.01
2022-12-08T06:56:15.712Z,5.26
2022-12-08T06:58:46.113Z,5.65
2022-12-08T07:01:16.996Z,5.81
2022-12-08T07:03:43.729Z,5.79
2022-12-08T07:06:16.429Z,5.37
2022-12-08T07:08:43.031Z,5.16
2022-12-08T07:11:12.358Z,5.75
2022-12-08T07:13:40.754Z,5.44
2022-12-08T07:16:09.463Z,5.52
2022-12-08T07:18:36.648Z,4.90
2022-12-08T07:21:08.858Z,5.59
2022-12-08T07:23:35.737Z,5.40
2022-12-08T07:26:04.168Z,5.51
2022-12-08T07:28:35.392Z,5.25
2022-12-08T07:31:02.551Z,4.90
2022-12-08T07:33:29.271Z,5.88
2022-12-08T07:36:01.774Z,5.61
2022-12-08T07:38:28.631Z,5.67
2022-12-08T07:40:55.335Z,5.77
2022-12-08T07:43:23.116Z,5.88
2022-12-08T07:45:50.741Z,5.91
2022-12-08T07:48:19.452Z,6.09
2022-12-08T07:50:46.446Z,5.59
2022-12-08T07:53:13.549Z,5.33
2022-12-08T07:55:41.225Z,5.62
2022-12-08T07:58:07.987Z,5.95
2022-12-08T08:00:34.538Z,5.85
2022-12-08T08:03:01.215Z,6.17
2022-12-08T08:05:27.697Z,5.85
2022-12-08T08:07:54.230Z,5.46
2022-12-08T08:10:20.734Z,6.10
2022-12-08T08:12:47.755Z,5.87
2022-12-08T08:15:14.260Z,6.25
2022-12-08T08:17:40.795Z,6.34
2022-12-08T08:20:08.375Z,6.04
2022-12-08T08:22:35.439Z,6.20
2022-12-08T08:25:01.862Z,5.63
2022-12-08T08:27:28.304Z,5.71
2022-12-08T08:29:55.837Z,5.46
2022-12-08T08:32:22.294Z,5.82
2022-12-08T08:34:48.750Z,5.98
2022-12-08T08:37:15.266Z,5.99
2022-12-08T08:39:43.014Z,5.55
2022-12-08T08:42:09.515Z,5.57
2022-12-08T08:44:37.386Z,5.37
2022-12-08T08:47:03.831Z,5.81
2022-12-08T08:49:30.284Z,6.11
2022-12-08T08:51:56.791Z,5.65
2022-12-08T08:54:23.352Z,5.94
2022-12-08T08:56:49.777Z,6.21
2022-12-08T08:59:16.243Z,5.93
2022-12-08T09:01:42.703Z,6.30
2022-12-08T09:04:10.362Z,6.13
2022-12-08T09:06:37.031Z,6.06
2022-12-08T09:09:04.090Z,5.79
2022-12-08T09:11:32.018Z,5.41
2022-12-08T09:13:58.457Z,5.97
2022-12-08T09:16:25.074Z,5.89
2022-12-08T09:18:51.850Z,5.82
2022-12-08T09:21:22.607Z,5.52
2022-12-08T09:23:50.645Z,5.87
2022-12-08T09:26:17.274Z,5.70
2022-12-08T09:28:46.444Z,5.91
2022-12-08T09:31:17.474Z,5.59
2022-12-08T09:33:44.098Z,5.63
2022-12-08T09:36:11.771Z,5.88
2022-12-08T09:38:38.949Z,5.80
2022-12-08T09:41:29.423Z,6.10
2022-12-08T09:44:47.538Z,5.55
2022-12-08T09:47:36.332Z,5.19
2022-12-08T09:50:37.580Z,5.32
2022-12-08T09:53:14.902Z,5.62
2022-12-08T09:55:59.624Z,6.25
2022-12-08T09:58:51.931Z,5.91
2022-12-08T10:01:20.453Z,5.93
2022-12-08T10:03:47.976Z,6.14
2022-12-08T10:06:21.404Z,5.70
2022-12-08T10:09:18.303Z,5.59
2022-12-08T10:12:17.329Z,6.16
2022-12-08T10:14:47.736Z,6.02
2022-12-08T10:17:25.512Z,6.32
2022-12-08T10:19:59.523Z,5.46
2022-12-08T10:22:31.035Z,6.30
2022-12-08T10:25:06.973Z,5.66
2022-12-08T10:27:37.282Z,5.53
2022-12-08T10:30:18.545Z,5.20
2022-12-08T10:32:47.958Z,5.98
2022-12-08T10:35:16.847Z,5.96
2022-12-08T10:38:01.496Z,5.34
2022-12-08T10:40:34.943Z,5.85
2022-12-08T10:43:05.158Z,5.78
2022-12-08T10:45:38.642Z,5.76
2022-12-08T10:48:06.939Z,6.06
2022-12-08T10:50:42.639Z,6.36
2022-12-08T10:53:09.016Z,6.03
2022-12-08T10:55:47.068Z,5.55
2022-12-08T10:58:44.965Z,6.44
2022-12-08T11:01:21.944Z,5.77
2022-12-08T11:03:53.010Z,5.58
2022-12-08T11:06:28.518Z,5.82
2022-12-08T11:09:00.532Z,5.40
2022-12-08T11:11:47.527Z,5.88
2022-12-08T11:14:20.158Z,6.31
2022-12-08T11:16:46.672Z,5.78
2022-12-08T11:19:17.851Z,6.23
2022-12-08T11:21:46.032Z,5.69
2022-12-08T11:24:15.216Z,5.76
2022-12-08T11:26:59.347Z,6.14
2022-12-08T11:29:28.081Z,5.61
2022-12-08T11:32:02.763Z,5.94
2022-12-08T11:34:42.656Z,5.88
2022-12-08T11:37:35.688Z,5.77
2022-12-08T11:40:08.005Z,6.36
2022-12-08T11:42:43.618Z,6.43
2022-12-08T11:45:19.271Z,6.31
2022-12-08T11:47:56.767Z,6.59
2022-12-08T11:50:29.624Z,6.41
2022-12-08T11:52:58.319Z,5.93
2022-12-08T11:55:49.675Z,5.77
2022-12-08T11:58:24.020Z,6.33
2022-12-08T12:00:50.497Z,6.37
2022-12-08T12:03:31.189Z,6.12
2022-12-08T12:09:22.418Z,6.06
2022-12-08T12:12:16.656Z,6.35
2022-12-08T12:15:11.539Z,6.01
2022-12-08T12:18:01.552Z,5.80
2022-12-08T12:20:39.790Z,6.35
2022-12-08T12:23:39.242Z,5.95
2022-12-08T12:26:08.879Z,6.39
2022-12-08T12:28:49.721Z,6.11
2022-12-08T12:31:21.607Z,6.05
2022-12-08T12:33:50.369Z,6.03
2022-12-08T12:36:18.737Z,5.84
2022-12-08T12:39:01.577Z,6.50
2022-12-08T12:41:32.393Z,6.20
2022-12-08T12:44:14.228Z,5.91
2022-12-08T12:46:48.244Z,6.13
2022-12-08T12:49:39.739Z,5.97
2022-12-08T12:52:15.387Z,6.09
2022-12-08T12:55:10.540Z,5.91
2022-12-08T12:57:39.142Z,6.07
2022-12-08T13:00:05.615Z,6.08
2022-12-08T13:02:44.538Z,6.26
2022-12-08T13:05:17.339Z,6.66
2022-12-08T13:07:50.129Z,5.98
2022-12-08T13:10:18.896Z,5.63
2022-12-08T13:13:01.074Z,5.87
2022-12-08T13:15:35.637Z,6.77
2022-12-08T13:18:02.331Z,6.89
2022-12-08T13:20:28.861Z,7.01
2022-12-08T13:23:13.641Z,6.53
2022-12-08T13:25:42.984Z,6.57
2022-12-08T13:28:15.492Z,6.19
2022-12-08T13:30:44.907Z,6.95
2022-12-08T13:33:18.968Z,6.86
2022-12-08T13:36:11.724Z,6.88
2022-12-08T13:38:39.027Z,6.31
2022-12-08T13:41:13.432Z,5.91
2022-12-08T13:44:50.473Z,6.66
2022-12-08T13:51:16.129Z,6.60
2022-12-08T13:58:35.305Z,6.93
2022-12-08T14:01:23.326Z,6.32
2022-12-08T14:04:30.558Z,6.38
2022-12-08T14:06:43.261Z,6.15
2022-12-08T14:09:17.623Z,6.53
2022-12-08T14:11:47.911Z,6.76
2022-12-08T14:14:53.952Z,6.89
2022-12-08T14:17:15.879Z,6.50
2022-12-08T14:19:45.617Z,6.92
2022-12-08T14:22:16.421Z,6.71
2022-12-08T14:24:50.165Z,6.52
2022-12-08T14:27:31.788Z,6.68
2022-12-08T14:30:01.568Z,6.82
2022-12-08T14:32:50.722Z,6.69
2022-12-08T14:35:26.652Z,6.80
2022-12-08T14:37:57.238Z,6.71
2022-12-08T14:40:48.068Z,6.83
2022-12-08T14:43:20.269Z,6.18
2022-12-08T14:45:49.222Z,6.27
2022-12-08T14:48:21.175Z,6.50
2022-12-08T14:51:18.433Z,6.66
2022-12-08T14:53:47.384Z,6.75
2022-12-08T14:56:26.687Z,6.77
2022-12-08T14:59:13.300Z,6.78
2022-12-08T15:01:41.190Z,6.55
2022-12-08T15:04:12.994Z,6.72
2022-12-08T15:07:07.366Z,6.53
2022-12-08T15:09:39.724Z,6.68
2022-12-08T15:12:11.895Z,6.53
2022-12-08T15:14:41.701Z,6.69
2022-12-08T15:17:29.777Z,6.64
2022-12-08T15:19:57.980Z,6.64
2022-12-08T15:22:24.881Z,6.66
2022-12-08T15:24:51.321Z,6.45
2022-12-08T15:27:19.606Z,6.62
2022-12-08T15:30:00.646Z,6.43
2022-12-08T15:32:27.230Z,6.54
2022-12-08T15:34:53.785Z,6.14
2022-12-08T15:37:26.286Z,6.28
2022-12-08T15:39:53.142Z,6.46
2022-12-08T15:42:19.667Z,6.48
2022-12-08T15:44:46.132Z,6.53
2022-12-08T15:47:21.241Z,6.50
2022-12-08T15:49:49.652Z,6.37
2022-12-08T15:52:19.723Z,6.43
2022-12-08T15:54:46.594Z,6.19
2022-12-08T15:57:44.195Z,6.35
2022-12-08T16:07:12.338Z,6.29
2022-12-08T16:09:12.420Z,6.06
2022-12-08T16:12:08.240Z,6.06
2022-12-08T16:17:23.482Z,6.23
2022-12-08T16:19:50.031Z,6.27
2022-12-08T16:22:54.100Z,6.30
2022-12-08T16:25:21.625Z,6.27
2022-12-08T16:28:36.826Z,6.27
2022-12-08T16:30:41.103Z,6.27
2022-12-08T16:33:07.908Z,6.27
2022-12-08T16:35:34.505Z,6.27
2022-12-08T16:38:01.079Z,6.29
2022-12-08T16:40:27.510Z,6.26
2022-12-08T16:42:54.594Z,6.17
2022-12-08T16:45:23.093Z,6.25
2022-12-08T16:47:51.238Z,6.25
2022-12-08T16:50:27.740Z,6.24
2022-12-08T16:52:58.316Z,6.22
2022-12-08T16:55:24.784Z,6.25
2022-12-08T16:57:51.334Z,6.16
2022-12-08T17:00:20.862Z,6.01
2022-12-08T17:02:47.373Z,5.86
2022-12-08T17:05:15.908Z,5.59
2022-12-08T17:07:43.946Z,5.58
2022-12-08T17:10:13.536Z,5.73
2022-12-08T17:12:40.049Z,6.01
2022-12-08T17:15:13.953Z,6.14
2022-12-08T17:17:41.114Z,6.16
2022-12-08T17:20:12.177Z,6.10
2022-12-08T17:22:38.804Z,6.09
2022-12-08T17:25:05.953Z,6.18
2022-12-08T17:27:32.464Z,6.14
2022-12-08T17:29:59.229Z,6.03
2022-12-08T17:32:25.800Z,6.13
2022-12-08T17:34:52.302Z,6.08
2022-12-08T17:37:19.502Z,6.06
2022-12-08T17:39:45.991Z,6.17
2022-12-08T17:42:12.444Z,6.17
2022-12-08T17:44:39.022Z,6.18
2022-12-08T17:47:05.654Z,6.18
2022-12-08T17:49:33.882Z,6.17
2022-12-08T17:52:03.187Z,6.19
2022-12-08T17:54:30.195Z,6.18
2022-12-08T17:56:58.586Z,6.21
2022-12-08T17:59:26.538Z,6.20
2022-12-08T18:01:54.416Z,6.19
2022-12-08T18:04:21.478Z,6.17
2022-12-08T18:06:48.137Z,5.97
2022-12-08T18:09:15.544Z,5.53
2022-12-08T18:11:43.269Z,5.84
2022-12-08T18:14:11.067Z,5.88
2022-12-08T18:16:40.376Z,5.68
2022-12-08T18:19:07.915Z,5.61
2022-12-08T18:21:35.144Z,5.99
2022-12-08T18:24:02.201Z,5.59
2022-12-08T18:26:30.564Z,5.61
2022-12-08T18:28:57.759Z,5.34
2022-12-08T18:31:24.534Z,5.81
2022-12-08T18:33:51.954Z,6.02
2022-12-08T18:36:20.843Z,5.84
2022-12-08T18:38:47.779Z,5.97
2022-12-08T18:41:17.304Z,5.69
2022-12-08T18:43:43.948Z,5.87
2022-12-08T18:46:12.187Z,5.95
2022-12-08T18:48:41.353Z,5.85
2022-12-08T18:51:15.633Z,6.00
2022-12-08T18:53:43.262Z,5.98
2022-12-08T18:56:22.082Z,5.77
2022-12-08T18:58:48.632Z,5.45
2022-12-08T19:01:15.356Z,5.05
2022-12-08T19:03:52.768Z,5.63
2022-12-08T19:06:29.717Z,5.70
2022-12-08T19:08:56.518Z,5.42
2022-12-08T19:11:26.506Z,5.80
2022-12-08T19:13:54.391Z,5.52
2022-12-08T19:16:21.888Z,5.74
2022-12-08T19:18:48.386Z,5.72
2022-12-08T19:21:14.842Z,5.70
2022-12-08T19:23:41.389Z,5.76
2022-12-08T19:26:08.677Z,5.73
2022-12-08T19:28:35.459Z,5.58
2022-12-08T19:31:09.350Z,5.67
2022-12-08T19:33:37.514Z,5.64
2022-12-08T19:36:09.154Z,5.64
2022-12-08T19:38:55.873Z,5.59
2022-12-08T19:41:41.784Z,5.54
2022-12-08T19:44:16.685Z,5.54
2022-12-08T19:46:43.358Z,5.47
2022-12-08T19:49:09.813Z,5.41
2022-12-08T19:51:36.347Z,5.41
2022-12-08T19:54:02.849Z,5.38
2022-12-08T19:56:29.387Z,5.32
2022-12-08T19:58:55.834Z,5.23
2022-12-08T20:01:22.306Z,5.18
2022-12-08T20:03:48.789Z,5.20
2022-12-08T20:06:17.989Z,5.15
2022-12-08T20:08:50.233Z,5.13
2022-12-08T20:11:17.098Z,5.18
2022-12-08T20:13:47.707Z,5.04
2022-12-08T20:16:16.012Z,5.04
2022-12-08T20:18:43.985Z,5.02
2022-12-08T20:21:12.149Z,4.98
2022-12-08T20:23:38.618Z,4.98
2022-12-08T20:26:11.261Z,4.94
2022-12-08T20:28:37.907Z,4.66
2022-12-08T20:31:05.272Z,4.67
2022-12-08T20:33:31.864Z,4.83
2022-12-08T20:36:05.066Z,4.24
2022-12-08T20:38:31.885Z,4.11
2022-12-08T20:40:59.215Z,4.15
2022-12-08T20:43:26.098Z,4.27
2022-12-08T20:45:52.536Z,4.06
2022-12-08T20:48:19.075Z,4.08
2022-12-08T20:50:45.583Z,4.39
2022-12-08T20:53:12.128Z,4.44
2022-12-08T20:55:41.229Z,4.52
2022-12-08T20:58:07.718Z,4.46
2022-12-08T21:00:34.439Z,4.56
2022-12-08T21:03:01.092Z,4.51
2022-12-08T21:05:27.867Z,4.45
2022-12-08T21:07:54.499Z,4.41
2022-12-08T21:10:20.984Z,4.41
2022-12-08T21:12:47.621Z,4.35
2022-12-08T21:15:14.068Z,4.31
2022-12-08T21:17:40.890Z,4.34
2022-12-08T21:20:08.184Z,4.32
2022-12-08T21:22:34.968Z,4.24
2022-12-08T21:25:01.928Z,4.18
2022-12-08T21:27:28.499Z,4.17
2022-12-08T21:29:54.991Z,4.16
2022-12-08T21:32:25.666Z,4.08
2022-12-08T21:34:55.171Z,4.15
2022-12-08T21:37:21.636Z,4.15
2022-12-08T21:39:48.313Z,4.17
2022-12-08T21:42:34.414Z,4.10
2022-12-08T21:45:01.370Z,4.10
2022-12-08T21:47:27.966Z,3.94
2022-12-08T21:49:54.493Z,3.76
2022-12-08T21:52:21.129Z,3.89
2022-12-08T21:54:47.685Z,3.93
2022-12-08T21:57:14.364Z,3.87
2022-12-08T21:59:40.886Z,3.87
2022-12-08T22:02:10.538Z,3.81
2022-12-08T22:04:37.235Z,3.82
2022-12-08T22:07:03.930Z,3.86
2022-12-08T22:09:30.990Z,3.89
2022-12-08T22:11:57.634Z,3.86
2022-12-08T22:14:24.116Z,3.85
2022-12-08T22:16:50.707Z,3.80
2022-12-08T22:19:17.365Z,3.81
2022-12-08T22:21:43.989Z,3.76
2022-12-08T22:24:10.692Z,3.73
2022-12-08T22:26:37.214Z,3.72
2022-12-08T22:29:03.739Z,3.65
2022-12-08T22:31:30.432Z,3.64
2022-12-08T22:33:58.923Z,3.63
2022-12-08T22:36:27.683Z,3.65
2022-12-08T22:38:55.012Z,3.66
2022-12-08T22:41:22.197Z,3.58
2022-12-08T22:43:49.911Z,3.62
2022-12-08T22:46:24.991Z,3.56
2022-12-08T22:48:52.507Z,3.53
2022-12-08T22:51:19.512Z,3.23
2022-12-08T22:53:47.409Z,3.37
2022-12-08T22:56:15.338Z,3.49
2022-12-08T22:58:42.713Z,3.36
2022-12-08T23:01:20.668Z,3.24
2022-12-08T23:03:47.320Z,3.47
2022-12-08T23:06:14.052Z,3.45
2022-12-08T23:08:40.742Z,3.41
2022-12-08T23:11:07.250Z,3.29
2022-12-08T23:13:33.756Z,3.40
2022-12-08T23:16:00.245Z,3.07
2022-12-08T23:18:26.748Z,3.06
2022-12-08T23:20:53.491Z,3.13
2022-12-08T23:23:19.926Z,3.16
2022-12-08T23:25:46.465Z,3.18
2022-12-08T23:28:13.229Z,3.29
2022-12-08T23:30:40.786Z,3.34
2022-12-08T23:33:07.336Z,3.36
2022-12-08T23:35:34.054Z,3.29
2022-12-08T23:38:00.753Z,3.28
2022-12-08T23:40:27.512Z,3.17
2022-12-08T23:42:53.996Z,3.15
2022-12-08T23:45:22.369Z,3.15
2022-12-08T23:47:49.017Z,3.20
2022-12-08T23:50:15.516Z,3.22
2022-12-08T23:52:42.141Z,3.21
2022-12-08T23:55:09.429Z,3.14
2022-12-08T23:57:36.689Z,3.23
